Notre-Dame-Du-Lac, Canada
Current Conditions -  °F | °C
As of 10:53 PM on Saturday 25 Oct 2014 (Local Time) from KFVE Reporting Station
Overcast Overcast  
Wind Chill: 35°   Ceiling: 300
Heat Index: 39°   Visibility: 10mi
Dew Point: 38°   Wind: 6mph
Humidity: 96%   Direction: 110°ESE
Pressure: 29.46"   Gusts: NA
Location:  47.6°N, 68.8°W
Report Text: KFVE 260253Z AUTO 11005KT 10SM OVC003 04/03 A2946 RMK AO2 SLP981 60000 T00390033 58012
Loading
Personal Weather Stations






























Interactive Weather Map
Tropical Storm Tracking
New forecast layout! Learn more

10-Day Weather Forecast

Advertisements
Track Severe Weather on mobile